Terminal Aerodrome Forecast
Issued by NWS

Home | Current Version | Previous Version | Text Only | Print | Product List | Glossary Off
Versions: 1 2 3 4 5 6 7 8 9 10 11 12 13 14

000
FTUS45 KGGW 131700 RRA
TAFSDY
TAF
KSDY 131741Z 1318/1418 33015KT P6SM BKN050
     FM132300 34013KT 5SM -SHSN BKN060
     FM140400 32007KT P6SM SCT050
      AMD LTD TO CLD VIS AND WIND=

USA.gov is the U.S. government's official web portal to all federal, state and local government web resources and services.